sensor_id;sensor_type;location;lat;lon;timestamp;P1;durP1;ratioP1;P2;durP2;ratioP2
23044;SDS011;11690;51.716;23.066;2022-08-19T00:01:23;18.25;;;12.48;;
23044;SDS011;11690;51.716;23.066;2022-08-19T00:03:57;17.10;;;12.48;;
23044;SDS011;11690;51.716;23.066;2022-08-19T00:06:25;16.38;;;12.52;;
23044;SDS011;11690;51.716;23.066;2022-08-19T00:08:54;21.10;;;13.13;;
23044;SDS011;11690;51.716;23.066;2022-08-19T00:11:22;20.35;;;13.13;;
23044;SDS011;11690;51.716;23.066;2022-08-19T00:13:52;17.73;;;10.60;;
23044;SDS011;11690;51.716;23.066;2022-08-19T00:16:22;16.00;;;11.65;;
23044;SDS011;11690;51.716;23.066;2022-08-19T00:18:53;17.35;;;12.35;;
23044;SDS011;11690;51.716;23.066;2022-08-19T00:21:22;12.82;;;10.45;;
23044;SDS011;11690;51.716;23.066;2022-08-19T00:23:50;22.98;;;10.85;;
23044;SDS011;11690;51.716;23.066;2022-08-19T00:26:17;20.13;;;11.63;;
23044;SDS011;11690;51.716;23.066;2022-08-19T00:28:44;17.80;;;12.30;;
23044;SDS011;11690;51.716;23.066;2022-08-19T00:31:11;19.77;;;12.55;;
23044;SDS011;11690;51.716;23.066;2022-08-19T00:33:38;17.83;;;11.68;;
23044;SDS011;11690;51.716;23.066;2022-08-19T00:36:06;17.20;;;11.05;;
23044;SDS011;11690;51.716;23.066;2022-08-19T00:38:34;17.38;;;11.60;;
23044;SDS011;11690;51.716;23.066;2022-08-19T00:41:04;18.42;;;10.07;;
23044;SDS011;11690;51.716;23.066;2022-08-19T00:43:32;18.55;;;11.55;;
23044;SDS011;11690;51.716;23.066;2022-08-19T00:45:59;16.40;;;12.02;;
23044;SDS011;11690;51.716;23.066;2022-08-19T00:48:28;15.65;;;12.18;;
23044;SDS011;11690;51.716;23.066;2022-08-19T00:50:55;18.25;;;11.55;;
23044;SDS011;11690;51.716;23.066;2022-08-19T00:53:23;17.73;;;11.00;;
23044;SDS011;11690;51.716;23.066;2022-08-19T00:55:53;21.17;;;10.98;;
23044;SDS011;11690;51.716;23.066;2022-08-19T00:58:23;15.25;;;12.23;;
23044;SDS011;11690;51.716;23.066;2022-08-19T01:00:51;16.33;;;11.77;;
23044;SDS011;11690;51.716;23.066;2022-08-19T01:03:19;12.63;;;10.68;;
23044;SDS011;11690;51.716;23.066;2022-08-19T01:05:47;23.58;;;11.23;;
23044;SDS011;11690;51.716;23.066;2022-08-19T01:08:16;18.80;;;13.30;;
23044;SDS011;11690;51.716;23.066;2022-08-19T01:10:48;15.10;;;12.43;;
23044;SDS011;11690;51.716;23.066;2022-08-19T01:13:19;16.67;;;13.30;;
23044;SDS011;11690;51.716;23.066;2022-08-19T01:16:02;17.38;;;12.90;;
23044;SDS011;11690;51.716;23.066;2022-08-19T01:18:38;18.85;;;12.23;;
23044;SDS011;11690;51.716;23.066;2022-08-19T01:21:15;15.85;;;10.27;;
23044;SDS011;11690;51.716;23.066;2022-08-19T01:23:45;17.55;;;10.48;;
23044;SDS011;11690;51.716;23.066;2022-08-19T01:26:15;23.33;;;11.15;;
23044;SDS011;11690;51.716;23.066;2022-08-19T01:28:50;12.82;;;11.23;;
23044;SDS011;11690;51.716;23.066;2022-08-19T01:31:20;20.35;;;12.90;;
23044;SDS011;11690;51.716;23.066;2022-08-19T01:33:54;17.08;;;11.50;;
23044;SDS011;11690;51.716;23.066;2022-08-19T01:36:33;24.77;;;13.45;;
23044;SDS011;11690;51.716;23.066;2022-08-19T01:39:04;17.83;;;11.35;;
23044;SDS011;11690;51.716;23.066;2022-08-19T01:41:33;20.98;;;12.07;;
23044;SDS011;11690;51.716;23.066;2022-08-19T01:44:00;22.98;;;12.18;;
23044;SDS011;11690;51.716;23.066;2022-08-19T01:46:45;21.20;;;12.20;;
23044;SDS011;11690;51.716;23.066;2022-08-19T01:49:14;18.83;;;11.50;;
23044;SDS011;11690;51.716;23.066;2022-08-19T01:51:43;18.20;;;12.00;;
23044;SDS011;11690;51.716;23.066;2022-08-19T01:54:11;17.13;;;10.68;;
23044;SDS011;11690;51.716;23.066;2022-08-19T01:56:49;14.00;;;10.95;;
23044;SDS011;11690;51.716;23.066;2022-08-19T01:59:19;25.92;;;11.93;;
23044;SDS011;11690;51.716;23.066;2022-08-19T02:01:48;17.38;;;12.80;;
23044;SDS011;11690;51.716;23.066;2022-08-19T02:04:15;17.20;;;11.18;;
23044;SDS011;11690;51.716;23.066;2022-08-19T02:06:42;17.65;;;11.02;;
23044;SDS011;11690;51.716;23.066;2022-08-19T02:09:09;17.65;;;11.07;;
23044;SDS011;11690;51.716;23.066;2022-08-19T02:11:37;17.50;;;12.38;;
23044;SDS011;11690;51.716;23.066;2022-08-19T02:14:05;23.27;;;12.15;;
23044;SDS011;11690;51.716;23.066;2022-08-19T02:16:33;14.40;;;11.07;;
23044;SDS011;11690;51.716;23.066;2022-08-19T02:19:01;16.30;;;11.48;;
23044;SDS011;11690;51.716;23.066;2022-08-19T02:21:28;21.50;;;11.38;;
23044;SDS011;11690;51.716;23.066;2022-08-19T02:23:55;17.92;;;11.55;;
23044;SDS011;11690;51.716;23.066;2022-08-19T02:26:23;17.83;;;13.20;;
23044;SDS011;11690;51.716;23.066;2022-08-19T02:28:50;18.13;;;13.82;;
23044;SDS011;11690;51.716;23.066;2022-08-19T02:31:18;19.92;;;12.05;;
23044;SDS011;11690;51.716;23.066;2022-08-19T02:33:47;18.80;;;13.40;;
23044;SDS011;11690;51.716;23.066;2022-08-19T02:36:15;15.80;;;12.38;;
23044;SDS011;11690;51.716;23.066;2022-08-19T02:38:47;19.40;;;12.68;;
23044;SDS011;11690;51.716;23.066;2022-08-19T02:41:25;16.65;;;12.20;;
23044;SDS011;11690;51.716;23.066;2022-08-19T02:43:54;15.15;;;11.77;;
23044;SDS011;11690;51.716;23.066;2022-08-19T02:46:44;19.50;;;11.77;;
23044;SDS011;11690;51.716;23.066;2022-08-19T02:49:12;17.55;;;11.98;;
23044;SDS011;11690;51.716;23.066;2022-08-19T02:51:40;19.95;;;12.32;;
23044;SDS011;11690;51.716;23.066;2022-08-19T02:54:09;20.50;;;12.45;;
23044;SDS011;11690;51.716;23.066;2022-08-19T02:56:37;19.90;;;12.30;;
23044;SDS011;11690;51.716;23.066;2022-08-19T02:59:05;16.85;;;12.93;;
23044;SDS011;11690;51.716;23.066;2022-08-19T03:01:38;13.77;;;11.95;;
23044;SDS011;11690;51.716;23.066;2022-08-19T03:04:08;17.80;;;12.80;;
23044;SDS011;11690;51.716;23.066;2022-08-19T03:06:39;15.85;;;12.02;;
23044;SDS011;11690;51.716;23.066;2022-08-19T03:09:08;14.13;;;12.57;;
23044;SDS011;11690;51.716;23.066;2022-08-19T03:11:35;18.45;;;12.20;;
23044;SDS011;11690;51.716;23.066;2022-08-19T03:14:03;24.35;;;12.63;;
23044;SDS011;11690;51.716;23.066;2022-08-19T03:16:33;18.38;;;12.85;;
23044;SDS011;11690;51.716;23.066;2022-08-19T03:19:01;16.20;;;12.15;;
23044;SDS011;11690;51.716;23.066;2022-08-19T03:21:30;19.55;;;12.18;;
23044;SDS011;11690;51.716;23.066;2022-08-19T03:24:00;18.45;;;12.85;;
23044;SDS011;11690;51.716;23.066;2022-08-19T03:26:29;15.68;;;11.52;;
23044;SDS011;11690;51.716;23.066;2022-08-19T03:29:00;15.18;;;11.82;;
23044;SDS011;11690;51.716;23.066;2022-08-19T03:31:31;16.83;;;11.05;;
23044;SDS011;11690;51.716;23.066;2022-08-19T03:34:12;15.88;;;11.10;;
23044;SDS011;11690;51.716;23.066;2022-08-19T03:36:40;13.95;;;10.88;;
23044;SDS011;11690;51.716;23.066;2022-08-19T03:39:09;18.23;;;11.68;;
23044;SDS011;11690;51.716;23.066;2022-08-19T03:41:37;15.95;;;11.63;;
23044;SDS011;11690;51.716;23.066;2022-08-19T03:44:12;19.08;;;10.88;;
23044;SDS011;11690;51.716;23.066;2022-08-19T03:46:45;13.57;;;10.75;;
23044;SDS011;11690;51.716;23.066;2022-08-19T03:49:14;14.77;;;11.07;;
23044;SDS011;11690;51.716;23.066;2022-08-19T03:51:44;18.40;;;11.48;;
23044;SDS011;11690;51.716;23.066;2022-08-19T03:54:13;13.88;;;10.90;;
23044;SDS011;11690;51.716;23.066;2022-08-19T03:56:41;12.73;;;10.80;;
23044;SDS011;11690;51.716;23.066;2022-08-19T03:59:10;15.23;;;10.85;;
23044;SDS011;11690;51.716;23.066;2022-08-19T04:01:39;14.63;;;11.00;;
23044;SDS011;11690;51.716;23.066;2022-08-19T04:04:07;14.57;;;11.40;;
23044;SDS011;11690;51.716;23.066;2022-08-19T04:06:35;12.20;;;10.80;;
23044;SDS011;11690;51.716;23.066;2022-08-19T04:09:06;16.75;;;11.70;;
23044;SDS011;11690;51.716;23.066;2022-08-19T04:11:37;12.18;;;10.70;;
23044;SDS011;11690;51.716;23.066;2022-08-19T04:14:15;14.73;;;12.00;;
23044;SDS011;11690;51.716;23.066;2022-08-19T04:16:44;17.50;;;12.00;;
23044;SDS011;11690;51.716;23.066;2022-08-19T04:19:13;16.67;;;11.40;;
23044;SDS011;11690;51.716;23.066;2022-08-19T04:21:42;15.77;;;11.65;;
23044;SDS011;11690;51.716;23.066;2022-08-19T04:24:11;18.27;;;11.57;;
23044;SDS011;11690;51.716;23.066;2022-08-19T04:26:39;18.90;;;12.13;;
23044;SDS011;11690;51.716;23.066;2022-08-19T04:29:07;18.77;;;12.43;;
23044;SDS011;11690;51.716;23.066;2022-08-19T04:31:39;17.58;;;12.00;;
23044;SDS011;11690;51.716;23.066;2022-08-19T04:34:08;16.30;;;12.00;;
23044;SDS011;11690;51.716;23.066;2022-08-19T04:36:40;15.65;;;12.23;;
23044;SDS011;11690;51.716;23.066;2022-08-19T04:39:09;15.02;;;12.20;;
23044;SDS011;11690;51.716;23.066;2022-08-19T04:41:37;17.35;;;12.07;;
23044;SDS011;11690;51.716;23.066;2022-08-19T04:44:23;16.05;;;13.13;;
23044;SDS011;11690;51.716;23.066;2022-08-19T04:46:50;14.02;;;12.00;;
23044;SDS011;11690;51.716;23.066;2022-08-19T04:49:19;15.13;;;12.23;;
23044;SDS011;11690;51.716;23.066;2022-08-19T04:51:49;15.50;;;11.80;;
23044;SDS011;11690;51.716;23.066;2022-08-19T04:54:18;22.10;;;11.52;;
23044;SDS011;11690;51.716;23.066;2022-08-19T04:57:05;13.10;;;11.18;;
23044;SDS011;11690;51.716;23.066;2022-08-19T04:59:35;16.08;;;11.07;;
23044;SDS011;11690;51.716;23.066;2022-08-19T05:02:03;14.38;;;11.20;;
23044;SDS011;11690;51.716;23.066;2022-08-19T05:04:31;18.35;;;10.88;;
23044;SDS011;11690;51.716;23.066;2022-08-19T05:06:59;13.75;;;10.60;;
23044;SDS011;11690;51.716;23.066;2022-08-19T05:09:28;18.77;;;11.27;;
23044;SDS011;11690;51.716;23.066;2022-08-19T05:12:16;14.20;;;10.52;;
23044;SDS011;11690;51.716;23.066;2022-08-19T05:14:44;18.63;;;10.07;;
23044;SDS011;11690;51.716;23.066;2022-08-19T05:17:13;17.75;;;10.55;;
23044;SDS011;11690;51.716;23.066;2022-08-19T05:20:01;12.05;;;9.73;;
23044;SDS011;11690;51.716;23.066;2022-08-19T05:22:47;16.23;;;9.73;;
23044;SDS011;11690;51.716;23.066;2022-08-19T05:25:16;13.82;;;9.82;;
23044;SDS011;11690;51.716;23.066;2022-08-19T05:27:45;13.40;;;9.77;;
23044;SDS011;11690;51.716;23.066;2022-08-19T05:30:13;12.82;;;9.52;;
23044;SDS011;11690;51.716;23.066;2022-08-19T05:32:41;16.05;;;10.50;;
23044;SDS011;11690;51.716;23.066;2022-08-19T05:35:08;16.45;;;9.43;;
23044;SDS011;11690;51.716;23.066;2022-08-19T05:37:36;19.55;;;9.77;;
23044;SDS011;11690;51.716;23.066;2022-08-19T05:40:03;15.10;;;9.20;;
23044;SDS011;11690;51.716;23.066;2022-08-19T05:42:31;11.98;;;8.82;;
23044;SDS011;11690;51.716;23.066;2022-08-19T05:44:58;11.13;;;8.85;;
23044;SDS011;11690;51.716;23.066;2022-08-19T05:47:25;12.10;;;8.93;;
23044;SDS011;11690;51.716;23.066;2022-08-19T05:49:52;14.35;;;8.90;;
23044;SDS011;11690;51.716;23.066;2022-08-19T05:52:19;12.40;;;8.77;;
23044;SDS011;11690;51.716;23.066;2022-08-19T05:54:52;17.63;;;9.27;;
23044;SDS011;11690;51.716;23.066;2022-08-19T05:57:22;16.20;;;9.32;;
23044;SDS011;11690;51.716;23.066;2022-08-19T05:59:49;15.68;;;8.68;;
23044;SDS011;11690;51.716;23.066;2022-08-19T06:02:25;13.40;;;8.60;;
23044;SDS011;11690;51.716;23.066;2022-08-19T06:04:52;15.20;;;8.48;;
23044;SDS011;11690;51.716;23.066;2022-08-19T06:07:19;9.82;;;7.95;;
23044;SDS011;11690;51.716;23.066;2022-08-19T06:09:46;9.93;;;8.02;;
23044;SDS011;11690;51.716;23.066;2022-08-19T06:12:27;12.77;;;8.07;;
23044;SDS011;11690;51.716;23.066;2022-08-19T06:15:03;14.52;;;8.38;;
23044;SDS011;11690;51.716;23.066;2022-08-19T06:17:37;13.85;;;8.38;;
23044;SDS011;11690;51.716;23.066;2022-08-19T06:20:05;11.38;;;7.97;;
23044;SDS011;11690;51.716;23.066;2022-08-19T06:22:38;12.10;;;8.25;;
23044;SDS011;11690;51.716;23.066;2022-08-19T06:25:07;10.55;;;7.40;;
23044;SDS011;11690;51.716;23.066;2022-08-19T06:27:35;12.90;;;8.32;;
23044;SDS011;11690;51.716;23.066;2022-08-19T06:30:14;11.07;;;8.00;;
23044;SDS011;11690;51.716;23.066;2022-08-19T06:32:41;10.85;;;7.80;;
23044;SDS011;11690;51.716;23.066;2022-08-19T06:35:08;10.85;;;7.95;;
23044;SDS011;11690;51.716;23.066;2022-08-19T06:37:36;10.38;;;8.38;;
23044;SDS011;11690;51.716;23.066;2022-08-19T06:40:08;10.57;;;7.78;;
23044;SDS011;11690;51.716;23.066;2022-08-19T06:42:37;18.35;;;7.78;;
23044;SDS011;11690;51.716;23.066;2022-08-19T06:45:10;13.73;;;7.78;;
23044;SDS011;11690;51.716;23.066;2022-08-19T06:47:37;15.07;;;7.28;;
23044;SDS011;11690;51.716;23.066;2022-08-19T06:50:04;9.75;;;7.60;;
23044;SDS011;11690;51.716;23.066;2022-08-19T06:52:32;10.32;;;6.97;;
23044;SDS011;11690;51.716;23.066;2022-08-19T06:55:03;12.68;;;7.70;;
23044;SDS011;11690;51.716;23.066;2022-08-19T06:57:32;9.43;;;7.30;;
23044;SDS011;11690;51.716;23.066;2022-08-19T07:00:00;14.95;;;7.63;;
23044;SDS011;11690;51.716;23.066;2022-08-19T07:02:27;14.30;;;7.10;;
23044;SDS011;11690;51.716;23.066;2022-08-19T07:04:54;13.02;;;7.72;;
23044;SDS011;11690;51.716;23.066;2022-08-19T07:07:24;17.45;;;7.22;;
23044;SDS011;11690;51.716;23.066;2022-08-19T07:09:51;9.68;;;7.43;;
23044;SDS011;11690;51.716;23.066;2022-08-19T07:12:28;12.77;;;8.32;;
23044;SDS011;11690;51.716;23.066;2022-08-19T07:14:58;15.05;;;7.03;;
23044;SDS011;11690;51.716;23.066;2022-08-19T07:17:25;12.32;;;7.15;;
23044;SDS011;11690;51.716;23.066;2022-08-19T07:19:52;8.20;;;6.95;;
23044;SDS011;11690;51.716;23.066;2022-08-19T07:22:20;15.82;;;7.30;;
23044;SDS011;11690;51.716;23.066;2022-08-19T07:24:53;15.65;;;7.53;;
23044;SDS011;11690;51.716;23.066;2022-08-19T07:27:20;11.68;;;6.93;;
23044;SDS011;11690;51.716;23.066;2022-08-19T07:29:51;14.70;;;7.65;;
23044;SDS011;11690;51.716;23.066;2022-08-19T07:32:22;7.85;;;6.30;;
23044;SDS011;11690;51.716;23.066;2022-08-19T07:34:49;12.40;;;6.32;;
23044;SDS011;11690;51.716;23.066;2022-08-19T07:37:16;14.93;;;5.93;;
23044;SDS011;11690;51.716;23.066;2022-08-19T07:39:44;9.23;;;6.07;;
23044;SDS011;11690;51.716;23.066;2022-08-19T07:42:11;12.15;;;6.57;;
23044;SDS011;11690;51.716;23.066;2022-08-19T07:44:39;14.43;;;6.80;;
23044;SDS011;11690;51.716;23.066;2022-08-19T07:47:12;9.57;;;6.88;;
23044;SDS011;11690;51.716;23.066;2022-08-19T07:50:02;11.13;;;6.07;;
23044;SDS011;11690;51.716;23.066;2022-08-19T07:52:33;8.80;;;6.55;;
23044;SDS011;11690;51.716;23.066;2022-08-19T07:55:03;15.00;;;6.13;;
23044;SDS011;11690;51.716;23.066;2022-08-19T07:57:31;12.80;;;6.97;;
23044;SDS011;11690;51.716;23.066;2022-08-19T07:59:58;11.57;;;6.53;;
23044;SDS011;11690;51.716;23.066;2022-08-19T08:02:25;8.70;;;5.80;;
23044;SDS011;11690;51.716;23.066;2022-08-19T08:04:52;15.18;;;6.38;;
23044;SDS011;11690;51.716;23.066;2022-08-19T08:07:39;12.65;;;6.53;;
23044;SDS011;11690;51.716;23.066;2022-08-19T08:10:24;11.48;;;5.75;;
23044;SDS011;11690;51.716;23.066;2022-08-19T08:12:52;14.00;;;6.50;;
23044;SDS011;11690;51.716;23.066;2022-08-19T08:15:35;13.18;;;6.38;;
23044;SDS011;11690;51.716;23.066;2022-08-19T08:18:09;8.30;;;4.68;;
23044;SDS011;11690;51.716;23.066;2022-08-19T08:20:37;10.57;;;5.53;;
23044;SDS011;11690;51.716;23.066;2022-08-19T08:23:04;10.73;;;5.05;;
23044;SDS011;11690;51.716;23.066;2022-08-19T08:25:53;8.48;;;4.53;;
23044;SDS011;11690;51.716;23.066;2022-08-19T08:28:21;7.15;;;4.38;;
23044;SDS011;11690;51.716;23.066;2022-08-19T08:30:49;9.25;;;4.82;;
23044;SDS011;11690;51.716;23.066;2022-08-19T08:33:20;9.27;;;5.45;;
23044;SDS011;11690;51.716;23.066;2022-08-19T08:35:58;9.68;;;4.93;;
23044;SDS011;11690;51.716;23.066;2022-08-19T08:38:25;8.68;;;4.18;;
23044;SDS011;11690;51.716;23.066;2022-08-19T08:41:00;10.10;;;4.60;;
23044;SDS011;11690;51.716;23.066;2022-08-19T08:43:37;7.55;;;4.00;;
23044;SDS011;11690;51.716;23.066;2022-08-19T08:46:10;10.90;;;5.00;;
23044;SDS011;11690;51.716;23.066;2022-08-19T08:52:21;9.05;;;3.72;;
23044;SDS011;11690;51.716;23.066;2022-08-19T08:54:44;8.23;;;3.72;;
23044;SDS011;11690;51.716;23.066;2022-08-19T09:00:30;7.68;;;4.20;;
23044;SDS011;11690;51.716;23.066;2022-08-19T09:03:03;5.95;;;3.95;;
23044;SDS011;11690;51.716;23.066;2022-08-19T09:08:20;7.00;;;3.58;;
23044;SDS011;11690;51.716;23.066;2022-08-19T09:10:52;5.90;;;3.80;;
23044;SDS011;11690;51.716;23.066;2022-08-19T09:16:32;9.18;;;3.88;;
23044;SDS011;11690;51.716;23.066;2022-08-19T09:19:01;7.50;;;3.65;;
23044;SDS011;11690;51.716;23.066;2022-08-19T09:21:32;7.70;;;4.05;;
23044;SDS011;11690;51.716;23.066;2022-08-19T09:24:00;8.18;;;4.40;;
23044;SDS011;11690;51.716;23.066;2022-08-19T09:26:29;10.98;;;3.85;;
23044;SDS011;11690;51.716;23.066;2022-08-19T09:29:19;8.07;;;3.75;;
23044;SDS011;11690;51.716;23.066;2022-08-19T09:31:48;13.98;;;4.25;;
23044;SDS011;11690;51.716;23.066;2022-08-19T09:34:16;7.40;;;4.15;;
23044;SDS011;11690;51.716;23.066;2022-08-19T09:36:47;9.77;;;3.78;;
23044;SDS011;11690;51.716;23.066;2022-08-19T09:39:20;7.97;;;3.67;;
23044;SDS011;11690;51.716;23.066;2022-08-19T09:41:47;6.50;;;3.70;;
23044;SDS011;11690;51.716;23.066;2022-08-19T09:44:16;6.15;;;3.85;;
23044;SDS011;11690;51.716;23.066;2022-08-19T09:46:44;8.48;;;3.55;;
23044;SDS011;11690;51.716;23.066;2022-08-19T09:49:14;7.03;;;4.00;;
23044;SDS011;11690;51.716;23.066;2022-08-19T09:51:44;4.57;;;3.20;;
23044;SDS011;11690;51.716;23.066;2022-08-19T09:54:16;5.70;;;3.47;;
23044;SDS011;11690;51.716;23.066;2022-08-19T09:56:54;7.50;;;3.63;;
23044;SDS011;11690;51.716;23.066;2022-08-19T09:59:21;5.97;;;3.28;;
23044;SDS011;11690;51.716;23.066;2022-08-19T10:01:48;6.32;;;3.42;;
23044;SDS011;11690;51.716;23.066;2022-08-19T10:04:16;6.07;;;3.33;;
23044;SDS011;11690;51.716;23.066;2022-08-19T10:06:48;8.75;;;3.25;;
23044;SDS011;11690;51.716;23.066;2022-08-19T10:09:19;8.30;;;3.67;;
23044;SDS011;11690;51.716;23.066;2022-08-19T10:12:00;5.30;;;3.58;;
23044;SDS011;11690;51.716;23.066;2022-08-19T10:14:29;4.95;;;3.42;;
23044;SDS011;11690;51.716;23.066;2022-08-19T10:16:57;7.75;;;4.50;;
23044;SDS011;11690;51.716;23.066;2022-08-19T10:19:24;5.40;;;3.38;;
23044;SDS011;11690;51.716;23.066;2022-08-19T10:21:52;11.02;;;3.58;;
23044;SDS011;11690;51.716;23.066;2022-08-19T10:24:25;9.02;;;3.38;;
23044;SDS011;11690;51.716;23.066;2022-08-19T10:26:55;6.47;;;3.63;;
23044;SDS011;11690;51.716;23.066;2022-08-19T10:29:25;7.20;;;3.40;;
23044;SDS011;11690;51.716;23.066;2022-08-19T10:32:03;6.82;;;3.35;;
23044;SDS011;11690;51.716;23.066;2022-08-19T10:34:36;5.65;;;3.53;;
23044;SDS011;11690;51.716;23.066;2022-08-19T10:37:15;15.63;;;3.85;;
23044;SDS011;11690;51.716;23.066;2022-08-19T10:39:49;14.70;;;4.07;;
23044;SDS011;11690;51.716;23.066;2022-08-19T10:42:17;10.32;;;3.80;;
23044;SDS011;11690;51.716;23.066;2022-08-19T10:44:45;7.03;;;3.70;;
23044;SDS011;11690;51.716;23.066;2022-08-19T10:47:13;8.85;;;3.78;;
23044;SDS011;11690;51.716;23.066;2022-08-19T10:49:50;9.10;;;3.67;;
23044;SDS011;11690;51.716;23.066;2022-08-19T10:52:38;6.78;;;3.53;;
23044;SDS011;11690;51.716;23.066;2022-08-19T10:55:16;4.63;;;3.60;;
23044;SDS011;11690;51.716;23.066;2022-08-19T10:58:09;6.75;;;3.70;;
23044;SDS011;11690;51.716;23.066;2022-08-19T11:00:40;5.53;;;3.60;;
23044;SDS011;11690;51.716;23.066;2022-08-19T11:03:07;4.63;;;3.50;;
23044;SDS011;11690;51.716;23.066;2022-08-19T11:05:35;6.03;;;3.70;;
23044;SDS011;11690;51.716;23.066;2022-08-19T11:08:07;10.73;;;3.92;;
23044;SDS011;11690;51.716;23.066;2022-08-19T11:10:49;8.65;;;3.33;;
23044;SDS011;11690;51.716;23.066;2022-08-19T11:13:17;6.97;;;3.53;;
23044;SDS011;11690;51.716;23.066;2022-08-19T11:15:44;8.82;;;2.80;;
23044;SDS011;11690;51.716;23.066;2022-08-19T11:18:13;7.32;;;3.58;;
23044;SDS011;11690;51.716;23.066;2022-08-19T11:20:41;7.63;;;3.38;;
23044;SDS011;11690;51.716;23.066;2022-08-19T11:23:07;8.82;;;3.30;;
23044;SDS011;11690;51.716;23.066;2022-08-19T11:25:34;4.78;;;2.97;;
23044;SDS011;11690;51.716;23.066;2022-08-19T11:28:05;6.63;;;3.45;;
23044;SDS011;11690;51.716;23.066;2022-08-19T11:30:32;5.63;;;3.35;;
23044;SDS011;11690;51.716;23.066;2022-08-19T11:32:59;5.03;;;3.53;;
23044;SDS011;11690;51.716;23.066;2022-08-19T11:35:27;8.15;;;4.05;;
23044;SDS011;11690;51.716;23.066;2022-08-19T11:37:54;6.55;;;3.63;;
23044;SDS011;11690;51.716;23.066;2022-08-19T11:40:24;5.47;;;3.38;;
23044;SDS011;11690;51.716;23.066;2022-08-19T11:42:51;7.93;;;3.50;;
23044;SDS011;11690;51.716;23.066;2022-08-19T11:45:22;7.40;;;3.63;;
23044;SDS011;11690;51.716;23.066;2022-08-19T11:47:50;6.45;;;3.05;;
23044;SDS011;11690;51.716;23.066;2022-08-19T11:50:17;7.65;;;3.63;;
23044;SDS011;11690;51.716;23.066;2022-08-19T11:52:45;8.77;;;3.55;;
23044;SDS011;11690;51.716;23.066;2022-08-19T11:55:13;5.57;;;3.40;;
23044;SDS011;11690;51.716;23.066;2022-08-19T11:57:40;6.07;;;3.45;;
23044;SDS011;11690;51.716;23.066;2022-08-19T12:00:08;6.25;;;3.38;;
23044;SDS011;11690;51.716;23.066;2022-08-19T12:02:37;5.28;;;3.40;;
23044;SDS011;11690;51.716;23.066;2022-08-19T12:05:04;6.90;;;3.72;;
23044;SDS011;11690;51.716;23.066;2022-08-19T12:07:37;5.53;;;3.53;;
23044;SDS011;11690;51.716;23.066;2022-08-19T12:10:05;6.80;;;3.15;;
23044;SDS011;11690;51.716;23.066;2022-08-19T12:12:34;8.05;;;3.80;;
23044;SDS011;11690;51.716;23.066;2022-08-19T12:15:01;9.50;;;3.97;;
23044;SDS011;11690;51.716;23.066;2022-08-19T12:17:28;6.80;;;3.35;;
23044;SDS011;11690;51.716;23.066;2022-08-19T12:19:57;9.45;;;3.58;;
23044;SDS011;11690;51.716;23.066;2022-08-19T12:22:24;8.05;;;3.47;;
23044;SDS011;11690;51.716;23.066;2022-08-19T12:24:51;8.35;;;3.60;;
23044;SDS011;11690;51.716;23.066;2022-08-19T12:27:20;8.90;;;3.42;;
23044;SDS011;11690;51.716;23.066;2022-08-19T12:30:06;10.82;;;3.33;;
23044;SDS011;11690;51.716;23.066;2022-08-19T12:32:35;8.20;;;3.28;;
23044;SDS011;11690;51.716;23.066;2022-08-19T12:35:03;6.72;;;3.33;;
23044;SDS011;11690;51.716;23.066;2022-08-19T12:37:30;6.18;;;3.65;;
23044;SDS011;11690;51.716;23.066;2022-08-19T12:39:58;8.93;;;3.40;;
23044;SDS011;11690;51.716;23.066;2022-08-19T12:42:26;11.40;;;3.58;;
23044;SDS011;11690;51.716;23.066;2022-08-19T12:44:53;5.07;;;3.10;;
23044;SDS011;11690;51.716;23.066;2022-08-19T12:47:20;6.53;;;3.35;;
23044;SDS011;11690;51.716;23.066;2022-08-19T12:49:48;7.93;;;3.60;;
23044;SDS011;11690;51.716;23.066;2022-08-19T12:52:24;5.40;;;3.20;;
23044;SDS011;11690;51.716;23.066;2022-08-19T12:54:56;11.48;;;3.70;;
23044;SDS011;11690;51.716;23.066;2022-08-19T12:57:24;5.03;;;2.67;;
23044;SDS011;11690;51.716;23.066;2022-08-19T13:00:20;5.38;;;2.63;;
23044;SDS011;11690;51.716;23.066;2022-08-19T13:02:49;9.55;;;3.08;;
23044;SDS011;11690;51.716;23.066;2022-08-19T13:05:22;7.20;;;3.10;;
23044;SDS011;11690;51.716;23.066;2022-08-19T13:07:51;9.20;;;2.90;;
23044;SDS011;11690;51.716;23.066;2022-08-19T13:10:20;8.30;;;3.25;;
23044;SDS011;11690;51.716;23.066;2022-08-19T13:12:48;5.28;;;2.75;;
23044;SDS011;11690;51.716;23.066;2022-08-19T13:15:17;7.22;;;2.65;;
23044;SDS011;11690;51.716;23.066;2022-08-19T13:17:51;8.40;;;3.03;;
23044;SDS011;11690;51.716;23.066;2022-08-19T13:20:19;8.90;;;2.60;;
23044;SDS011;11690;51.716;23.066;2022-08-19T13:22:47;6.00;;;2.80;;
23044;SDS011;11690;51.716;23.066;2022-08-19T13:25:15;12.52;;;2.78;;
23044;SDS011;11690;51.716;23.066;2022-08-19T13:27:44;5.38;;;2.90;;
23044;SDS011;11690;51.716;23.066;2022-08-19T13:30:11;9.68;;;2.85;;
23044;SDS011;11690;51.716;23.066;2022-08-19T13:32:59;13.02;;;3.40;;
23044;SDS011;11690;51.716;23.066;2022-08-19T13:35:38;6.30;;;3.08;;
23044;SDS011;11690;51.716;23.066;2022-08-19T13:38:11;8.20;;;2.83;;
23044;SDS011;11690;51.716;23.066;2022-08-19T13:40:39;6.28;;;3.08;;
23044;SDS011;11690;51.716;23.066;2022-08-19T13:43:07;5.18;;;2.65;;
23044;SDS011;11690;51.716;23.066;2022-08-19T13:45:53;10.98;;;3.20;;
23044;SDS011;11690;51.716;23.066;2022-08-19T13:48:22;9.32;;;3.20;;
23044;SDS011;11690;51.716;23.066;2022-08-19T13:50:50;6.05;;;2.30;;
23044;SDS011;11690;51.716;23.066;2022-08-19T13:53:17;8.60;;;2.30;;
23044;SDS011;11690;51.716;23.066;2022-08-19T13:55:44;11.48;;;2.83;;
23044;SDS011;11690;51.716;23.066;2022-08-19T13:58:12;8.45;;;2.47;;
23044;SDS011;11690;51.716;23.066;2022-08-19T14:00:40;8.80;;;3.10;;
23044;SDS011;11690;51.716;23.066;2022-08-19T14:03:09;7.20;;;2.60;;
23044;SDS011;11690;51.716;23.066;2022-08-19T14:05:37;9.85;;;2.60;;
23044;SDS011;11690;51.716;23.066;2022-08-19T14:08:05;6.82;;;2.70;;
23044;SDS011;11690;51.716;23.066;2022-08-19T14:10:32;7.70;;;2.95;;
23044;SDS011;11690;51.716;23.066;2022-08-19T14:13:00;9.25;;;3.05;;
23044;SDS011;11690;51.716;23.066;2022-08-19T14:15:28;10.95;;;2.75;;
23044;SDS011;11690;51.716;23.066;2022-08-19T14:17:56;7.53;;;2.92;;
23044;SDS011;11690;51.716;23.066;2022-08-19T14:20:23;11.55;;;2.72;;
23044;SDS011;11690;51.716;23.066;2022-08-19T14:22:52;8.23;;;2.72;;
23044;SDS011;11690;51.716;23.066;2022-08-19T14:25:21;12.30;;;2.97;;
23044;SDS011;11690;51.716;23.066;2022-08-19T14:27:50;7.38;;;3.08;;
23044;SDS011;11690;51.716;23.066;2022-08-19T14:30:18;12.50;;;3.10;;
23044;SDS011;11690;51.716;23.066;2022-08-19T14:32:56;7.82;;;2.28;;
23044;SDS011;11690;51.716;23.066;2022-08-19T14:35:25;8.30;;;3.20;;
23044;SDS011;11690;51.716;23.066;2022-08-19T14:37:53;8.02;;;2.67;;
23044;SDS011;11690;51.716;23.066;2022-08-19T14:40:23;7.88;;;3.30;;
23044;SDS011;11690;51.716;23.066;2022-08-19T14:42:58;7.32;;;2.50;;
23044;SDS011;11690;51.716;23.066;2022-08-19T14:45:31;10.75;;;2.70;;
23044;SDS011;11690;51.716;23.066;2022-08-19T14:48:02;8.10;;;2.50;;
23044;SDS011;11690;51.716;23.066;2022-08-19T14:50:30;7.10;;;2.75;;
23044;SDS011;11690;51.716;23.066;2022-08-19T14:52:58;9.18;;;2.50;;